Time;durP1;ratioP1;P1;durP2;ratioP2;P2;SDS_P1;SDS_P2;PMS_P1;PMS_P2;Temp;Humidity;BMP_temperature;BMP_pressure;BME280_temperature;BME280_humidity;BME280_pressure;Samples;Min_cycle;Max_cycle;Signal;HPM_P1;HPM_P2
2022/04/16 00:00:06;;;;;;;11.43;6.38;;;;;;;;;;5014621;28;20030;-39
2022/04/16 00:02:31;;;;;;;8.23;5.78;;;;;;;;;;5014816;28;20105;-40
2022/04/16 00:04:57;;;;;;;8.82;5.90;;;;;;;;;;5014543;28;20500;-41
2022/04/16 00:07:22;;;;;;;8.93;6.63;;;;;;;;;;5014676;28;20137;-39
2022/04/16 00:09:48;;;;;;;9.52;6.38;;;;;;;;;;5014710;28;20100;-40
2022/04/16 00:12:14;;;;;;;8.88;6.18;;;;;;;;;;5014675;28;20026;-40
2022/04/16 00:14:39;;;;;;;10.05;6.30;;;;;;;;;;5014249;28;20372;-41
2022/04/16 00:17:06;;;;;;;9.48;6.55;;;;;;;;;;5013895;28;20033;-38
2022/04/16 00:19:32;;;;;;;9.70;6.75;;;;;;;;;;5014243;28;20028;-39
2022/04/16 00:21:59;;;;;;;9.95;6.80;;;;;;;;;;5014231;28;20034;-39
2022/04/16 00:24:27;;;;;;;10.70;6.60;;;;;;;;;;5014241;28;20504;-39
2022/04/16 00:26:53;;;;;;;8.55;6.28;;;;;;;;;;5014014;28;20034;-40
2022/04/16 00:29:18;;;;;;;8.73;6.20;;;;;;;;;;5014090;28;20076;-42
2022/04/16 00:31:45;;;;;;;9.52;6.07;;;;;;;;;;5013963;28;20026;-40
2022/04/16 00:34:14;;;;;;;10.20;6.57;;;;;;;;;;5013899;28;20041;-39
2022/04/16 00:36:44;;;;;;;9.82;6.47;;;;;;;;;;5013950;28;20022;-39
2022/04/16 00:39:10;;;;;;;10.47;6.37;;;;;;;;;;5013918;28;20462;-40
2022/04/16 00:41:35;;;;;;;10.20;6.63;;;;;;;;;;5013790;28;20069;-39
2022/04/16 00:44:01;;;;;;;10.48;6.20;;;;;;;;;;5014114;28;20025;-39
2022/04/16 00:46:27;;;;;;;10.63;7.10;;;;;;;;;;5013997;28;20459;-39
2022/04/16 00:48:53;;;;;;;10.23;7.28;;;;;;;;;;5013974;28;20028;-40
2022/04/16 00:51:20;;;;;;;12.85;6.75;;;;;;;;;;5013970;28;20481;-39
2022/04/16 00:53:46;;;;;;;10.27;6.72;;;;;;;;;;5013579;28;20397;-42
2022/04/16 00:56:12;;;;;;;10.05;6.57;;;;;;;;;;5013897;28;20026;-39
2022/04/16 00:58:41;;;;;;;10.35;6.93;;;;;;;;;;5013340;28;20077;-38
2022/04/16 01:01:08;;;;;;;9.02;6.57;;;;;;;;;;5013684;28;20034;-39
2022/04/16 01:03:33;;;;;;;11.80;6.85;;;;;;;;;;5013752;28;20033;-39
2022/04/16 01:05:59;;;;;;;11.25;7.13;;;;;;;;;;5013531;28;20029;-39
2022/04/16 01:08:24;;;;;;;14.00;7.47;;;;;;;;;;5013645;28;20110;-39
2022/04/16 01:10:50;;;;;;;11.02;7.28;;;;;;;;;;5013584;28;20355;-40
2022/04/16 01:13:18;;;;;;;11.35;7.55;;;;;;;;;;5013333;28;20025;-39
2022/04/16 01:15:44;;;;;;;9.18;6.50;;;;;;;;;;5013273;28;20025;-39
2022/04/16 01:18:12;;;;;;;9.63;6.80;;;;;;;;;;5013458;28;20425;-38
2022/04/16 01:20:39;;;;;;;10.50;6.65;;;;;;;;;;5013416;28;20034;-39
2022/04/16 01:23:05;;;;;;;10.63;6.90;;;;;;;;;;5013417;28;20486;-39
2022/04/16 01:25:33;;;;;;;10.68;6.88;;;;;;;;;;5013039;28;20023;-39
2022/04/16 01:28:01;;;;;;;10.45;6.80;;;;;;;;;;5012422;28;20037;-38
2022/04/16 01:30:27;;;;;;;9.35;6.95;;;;;;;;;;5012867;28;20498;-39
2022/04/16 01:32:53;;;;;;;10.52;6.50;;;;;;;;;;5013220;28;20479;-38
2022/04/16 01:35:19;;;;;;;10.45;6.07;;;;;;;;;;5013234;28;20062;-38
2022/04/16 01:37:45;;;;;;;10.43;6.88;;;;;;;;;;5012840;28;20031;-38
2022/04/16 01:40:13;;;;;;;11.80;7.20;;;;;;;;;;5013091;28;20029;-39
2022/04/16 01:42:38;;;;;;;8.45;6.22;;;;;;;;;;5013034;28;20032;-41
2022/04/16 01:45:09;;;;;;;8.15;5.65;;;;;;;;;;5012758;28;20482;-38
2022/04/16 01:47:36;;;;;;;9.88;6.15;;;;;;;;;;5012983;28;20040;-38
2022/04/16 01:50:07;;;;;;;9.27;6.00;;;;;;;;;;5012738;28;20033;-38
2022/04/16 01:52:34;;;;;;;9.40;6.50;;;;;;;;;;5012986;28;20026;-38
2022/04/16 01:55:00;;;;;;;10.60;6.68;;;;;;;;;;5012663;28;20277;-38
2022/04/16 01:57:26;;;;;;;10.40;6.97;;;;;;;;;;5012428;28;20323;-38
2022/04/16 01:59:52;;;;;;;8.75;6.88;;;;;;;;;;5013187;28;20113;-39
2022/04/16 02:02:19;;;;;;;8.68;6.28;;;;;;;;;;5012581;28;20079;-39
2022/04/16 02:04:45;;;;;;;8.43;5.97;;;;;;;;;;5012772;28;20379;-39
2022/04/16 02:07:11;;;;;;;9.65;6.50;;;;;;;;;;5012439;28;20092;-38
2022/04/16 02:09:36;;;;;;;10.23;6.88;;;;;;;;;;5012729;28;20108;-40
2022/04/16 02:12:03;;;;;;;11.63;6.78;;;;;;;;;;5012459;28;20076;-39
2022/04/16 02:14:28;;;;;;;10.75;6.63;;;;;;;;;;5012728;28;20073;-39
2022/04/16 02:16:54;;;;;;;14.90;6.70;;;;;;;;;;5012425;28;20076;-38
2022/04/16 02:19:20;;;;;;;10.95;6.70;;;;;;;;;;5012688;28;20026;-40
2022/04/16 02:21:46;;;;;;;7.65;6.15;;;;;;;;;;5012652;28;20371;-39
2022/04/16 02:24:13;;;;;;;7.47;5.90;;;;;;;;;;5012399;28;20030;-39
2022/04/16 02:26:40;;;;;;;8.40;6.18;;;;;;;;;;5012544;28;20382;-39
2022/04/16 02:29:08;;;;;;;9.18;6.53;;;;;;;;;;5012269;28;20032;-39
2022/04/16 02:31:34;;;;;;;9.65;5.97;;;;;;;;;;5012589;28;20034;-39
2022/04/16 02:33:59;;;;;;;7.82;5.65;;;;;;;;;;5012514;28;20030;-39
2022/04/16 02:36:28;;;;;;;9.07;6.22;;;;;;;;;;5012502;28;20033;-38
2022/04/16 02:38:57;;;;;;;11.82;5.68;;;;;;;;;;5012454;28;20079;-40
2022/04/16 02:41:24;;;;;;;9.88;6.35;;;;;;;;;;5015976;28;20097;-39
2022/04/16 02:43:49;;;;;;;8.13;5.65;;;;;;;;;;5016317;28;20025;-39
2022/04/16 02:49:01;;;;;;;6.40;5.20;;;;;;;;;;5016376;28;20145;-39
2022/04/16 02:51:27;;;;;;;8.70;5.38;;;;;;;;;;5016189;28;20363;-39
2022/04/16 02:53:52;;;;;;;8.55;5.70;;;;;;;;;;5016145;28;20109;-41
2022/04/16 02:56:18;;;;;;;7.75;5.65;;;;;;;;;;5016160;28;20053;-39
2022/04/16 02:58:43;;;;;;;9.05;5.75;;;;;;;;;;5015948;28;20406;-39
2022/04/16 03:01:09;;;;;;;9.05;6.05;;;;;;;;;;5016008;28;20026;-39
2022/04/16 03:03:34;;;;;;;8.10;5.93;;;;;;;;;;5015752;28;20496;-40
2022/04/16 03:06:00;;;;;;;7.65;5.82;;;;;;;;;;5015879;28;20033;-38
2022/04/16 03:08:25;;;;;;;8.55;5.85;;;;;;;;;;5015874;28;20497;-38
2022/04/16 03:10:52;;;;;;;8.50;5.57;;;;;;;;;;5015872;28;20458;-38
2022/04/16 03:13:18;;;;;;;9.02;5.60;;;;;;;;;;5015487;28;20041;-38
2022/04/16 03:18:41;;;;;;;9.38;5.15;;;;;;;;;;5003360;28;20121;-39
2022/04/16 03:21:07;;;;;;;9.10;6.03;;;;;;;;;;5015434;28;20453;-39
2022/04/16 03:23:32;;;;;;;7.13;5.43;;;;;;;;;;5015343;28;20025;-39
2022/04/16 03:25:59;;;;;;;8.50;5.93;;;;;;;;;;5015476;28;20033;-40
2022/04/16 03:28:25;;;;;;;7.10;5.03;;;;;;;;;;5015537;28;20049;-39
2022/04/16 03:30:50;;;;;;;7.63;5.35;;;;;;;;;;5015458;28;20055;-39
2022/04/16 03:33:16;;;;;;;8.55;5.93;;;;;;;;;;5015181;28;20028;-41
2022/04/16 03:35:41;;;;;;;9.48;6.57;;;;;;;;;;5015054;28;20040;-42
2022/04/16 03:38:07;;;;;;;13.95;6.03;;;;;;;;;;5015385;28;20068;-40
2022/04/16 03:40:33;;;;;;;7.32;5.30;;;;;;;;;;5015321;28;20025;-39
2022/04/16 03:43:00;;;;;;;10.18;6.30;;;;;;;;;;5015250;28;20524;-39
2022/04/16 03:45:29;;;;;;;10.18;6.35;;;;;;;;;;5015198;28;20021;-41
2022/04/16 03:47:56;;;;;;;9.70;5.88;;;;;;;;;;5015144;28;20382;-39
2022/04/16 03:50:22;;;;;;;10.27;5.82;;;;;;;;;;5015075;28;20034;-41
2022/04/16 03:52:50;;;;;;;8.73;6.10;;;;;;;;;;5014246;28;20034;-41
2022/04/16 04:00:49;;;;;;;9.13;6.25;;;;;;;;;;5014995;28;20068;-39
2022/04/16 04:03:16;;;;;;;7.95;5.25;;;;;;;;;;5014985;28;20398;-41
2022/04/16 04:05:42;;;;;;;7.40;5.40;;;;;;;;;;5014706;28;20026;-39
2022/04/16 04:08:09;;;;;;;9.82;5.97;;;;;;;;;;5014907;28;20029;-38
2022/04/16 04:10:35;;;;;;;9.57;6.10;;;;;;;;;;5014499;28;20092;-40
2022/04/16 04:13:02;;;;;;;9.15;5.93;;;;;;;;;;4996919;28;20026;-42
2022/04/16 04:15:29;;;;;;;9.30;6.15;;;;;;;;;;5014387;28;20105;-40
2022/04/16 04:17:55;;;;;;;9.20;6.13;;;;;;;;;;5014413;28;20030;-41
2022/04/16 04:20:20;;;;;;;8.60;5.88;;;;;;;;;;5014261;28;20032;-41
2022/04/16 04:22:46;;;;;;;7.75;5.60;;;;;;;;;;5014661;28;20022;-43
2022/04/16 04:25:11;;;;;;;11.80;6.07;;;;;;;;;;5014459;28;20034;-39
2022/04/16 04:27:37;;;;;;;11.43;6.35;;;;;;;;;;5014103;28;20090;-41
2022/04/16 04:30:03;;;;;;;10.93;6.13;;;;;;;;;;5014094;28;20057;-40
2022/04/16 04:32:29;;;;;;;12.27;6.57;;;;;;;;;;4980335;28;20449;-39
2022/04/16 04:34:55;;;;;;;11.23;7.35;;;;;;;;;;5014348;28;20066;-39
2022/04/16 04:37:20;;;;;;;10.70;6.75;;;;;;;;;;5014253;28;20029;-39
2022/04/16 04:39:46;;;;;;;9.63;6.47;;;;;;;;;;5014208;28;20120;-41
2022/04/16 04:42:11;;;;;;;11.25;7.35;;;;;;;;;;5014167;28;20112;-42
2022/04/16 04:44:37;;;;;;;11.18;7.05;;;;;;;;;;5014116;28;20056;-40
2022/04/16 04:47:03;;;;;;;10.65;6.32;;;;;;;;;;5013762;28;20048;-40
2022/04/16 04:49:28;;;;;;;9.85;6.70;;;;;;;;;;5013710;28;20054;-39
2022/04/16 04:51:54;;;;;;;12.52;7.53;;;;;;;;;;5013739;28;20060;-41
2022/04/16 04:54:19;;;;;;;12.70;7.13;;;;;;;;;;5013965;28;20030;-40
2022/04/16 04:56:45;;;;;;;11.77;5.90;;;;;;;;;;5013770;28;20018;-39
2022/04/16 04:59:10;;;;;;;9.18;6.38;;;;;;;;;;5013270;28;20046;-39
2022/04/16 05:01:36;;;;;;;8.00;5.95;;;;;;;;;;5013910;28;20084;-39
2022/04/16 05:04:02;;;;;;;10.30;6.70;;;;;;;;;;5013338;28;20598;-41
2022/04/16 05:06:28;;;;;;;10.35;6.00;;;;;;;;;;5013320;28;20033;-39
2022/04/16 05:08:53;;;;;;;8.05;6.05;;;;;;;;;;5013442;28;20041;-39
2022/04/16 05:11:19;;;;;;;9.00;6.15;;;;;;;;;;5013656;28;20028;-41
2022/04/16 05:13:45;;;;;;;9.00;5.75;;;;;;;;;;5013306;28;20442;-39
2022/04/16 05:16:12;;;;;;;9.90;7.07;;;;;;;;;;4995834;28;20026;-41
2022/04/16 05:18:38;;;;;;;7.20;5.57;;;;;;;;;;5013507;28;20025;-39
2022/04/16 05:21:03;;;;;;;9.98;6.25;;;;;;;;;;5013292;28;20470;-39
2022/04/16 05:23:29;;;;;;;8.80;6.45;;;;;;;;;;5013122;28;20072;-40
2022/04/16 05:25:54;;;;;;;23.70;11.55;;;;;;;;;;5013003;28;20056;-39
2022/04/16 05:28:20;;;;;;;15.88;7.93;;;;;;;;;;5013068;28;20025;-39
2022/04/16 05:30:48;;;;;;;9.40;6.57;;;;;;;;;;5013077;28;20076;-39
2022/04/16 05:34:18;;;;;;;14.95;7.38;;;;;;;;;;5013274;28;20040;-39
2022/04/16 05:36:06;;;;;;;13.73;7.35;;;;;;;;;;5012721;28;20527;-39
2022/04/16 05:38:31;;;;;;;9.97;7.23;;;;;;;;;;5012961;28;20486;-40
2022/04/16 05:40:57;;;;;;;11.30;7.15;;;;;;;;;;5013130;28;20061;-39
2022/04/16 05:43:23;;;;;;;9.52;6.38;;;;;;;;;;5012817;28;20053;-40
2022/04/16 05:45:48;;;;;;;8.85;6.47;;;;;;;;;;5013054;28;20030;-39
2022/04/16 05:48:14;;;;;;;9.38;6.90;;;;;;;;;;5013000;28;20060;-39
2022/04/16 05:50:40;;;;;;;8.38;6.38;;;;;;;;;;5012692;28;20026;-39
2022/04/16 05:53:09;;;;;;;7.95;5.93;;;;;;;;;;5012724;28;20022;-39
2022/04/16 05:55:35;;;;;;;8.57;6.50;;;;;;;;;;5012901;28;20177;-40
2022/04/16 05:58:01;;;;;;;10.88;6.72;;;;;;;;;;5012562;28;20084;-39
2022/04/16 06:00:27;;;;;;;8.50;6.63;;;;;;;;;;5012590;28;20026;-40
2022/04/16 06:02:53;;;;;;;8.75;6.38;;;;;;;;;;5012948;28;20032;-40
2022/04/16 06:05:21;;;;;;;8.88;6.50;;;;;;;;;;5012855;28;20100;-40
2022/04/16 06:07:46;;;;;;;10.52;6.70;;;;;;;;;;5012754;28;20026;-40
2022/04/16 06:10:12;;;;;;;9.07;6.70;;;;;;;;;;5012773;28;20037;-42
2022/04/16 06:12:37;;;;;;;8.57;6.22;;;;;;;;;;5012857;28;20018;-39
2022/04/16 06:15:03;;;;;;;9.30;6.35;;;;;;;;;;5016079;28;20022;-39
2022/04/16 06:17:28;;;;;;;8.95;5.93;;;;;;;;;;5001543;28;20025;-39
2022/04/16 06:19:54;;;;;;;7.32;5.55;;;;;;;;;;5019236;28;20462;-43
2022/04/16 06:22:20;;;;;;;8.15;6.07;;;;;;;;;;5018956;28;20462;-41
2022/04/16 06:24:46;;;;;;;8.95;6.15;;;;;;;;;;5019016;28;20049;-43
2022/04/16 06:27:12;;;;;;;7.90;6.28;;;;;;;;;;5018852;28;20029;-42
2022/04/16 06:29:38;;;;;;;7.82;6.00;;;;;;;;;;5019171;28;20034;-42
2022/04/16 06:32:04;;;;;;;6.88;5.88;;;;;;;;;;5019006;28;20405;-40
2022/04/16 06:34:30;;;;;;;7.18;5.85;;;;;;;;;;5018793;28;20030;-41
2022/04/16 06:36:55;;;;;;;8.88;6.53;;;;;;;;;;5018863;28;20153;-43
2022/04/16 06:39:21;;;;;;;10.52;6.30;;;;;;;;;;5018843;28;20026;-40
2022/04/16 06:41:47;;;;;;;9.70;6.30;;;;;;;;;;5018764;28;20410;-39
2022/04/16 06:44:12;;;;;;;8.60;5.70;;;;;;;;;;5019064;28;20025;-42
2022/04/16 06:46:38;;;;;;;9.27;6.90;;;;;;;;;;5018993;28;20109;-40
2022/04/16 06:49:03;;;;;;;8.43;6.15;;;;;;;;;;5018730;28;20430;-40
2022/04/16 06:51:29;;;;;;;8.68;6.22;;;;;;;;;;5019011;28;20026;-45
2022/04/16 06:53:55;;;;;;;13.63;7.18;;;;;;;;;;5018968;28;20041;-43
2022/04/16 06:56:21;;;;;;;9.43;6.03;;;;;;;;;;5018915;28;20037;-42
2022/04/16 06:58:47;;;;;;;8.57;6.15;;;;;;;;;;5018562;28;20053;-42
2022/04/16 07:01:12;;;;;;;7.03;5.13;;;;;;;;;;5018609;28;20033;-42
2022/04/16 07:03:38;;;;;;;6.28;4.90;;;;;;;;;;5018888;28;20053;-40
2022/04/16 07:06:03;;;;;;;7.65;5.07;;;;;;;;;;5018761;28;20052;-41
2022/04/16 07:08:28;;;;;;;6.22;4.82;;;;;;;;;;5018447;28;20453;-40
2022/04/16 07:10:54;;;;;;;7.93;5.55;;;;;;;;;;5018512;28;20021;-40
2022/04/16 07:13:20;;;;;;;5.22;4.47;;;;;;;;;;5018566;28;20261;-39
2022/04/16 07:15:45;;;;;;;5.72;4.28;;;;;;;;;;5018717;28;20037;-38
2022/04/16 07:18:11;;;;;;;6.68;4.95;;;;;;;;;;5018719;28;20029;-42
2022/04/16 07:20:37;;;;;;;5.38;4.55;;;;;;;;;;5018411;28;20375;-39
2022/04/16 07:23:04;;;;;;;5.63;4.93;;;;;;;;;;5018663;28;20030;-40
2022/04/16 07:25:30;;;;;;;15.38;8.52;;;;;;;;;;5017913;28;20443;-40
2022/04/16 07:27:56;;;;;;;5.88;4.22;;;;;;;;;;5015459;28;20112;-37
2022/04/16 07:30:22;;;;;;;5.80;4.35;;;;;;;;;;5015826;28;20109;-41
2022/04/16 07:32:47;;;;;;;5.93;4.55;;;;;;;;;;5015227;28;20022;-40
2022/04/16 07:35:13;;;;;;;5.30;4.20;;;;;;;;;;5015439;28;20448;-39
2022/04/16 07:37:38;;;;;;;4.65;3.85;;;;;;;;;;5015161;28;20562;-39
2022/04/16 07:40:04;;;;;;;5.47;4.35;;;;;;;;;;5015328;28;20022;-41
2022/04/16 07:42:32;;;;;;;6.90;5.35;;;;;;;;;;5015002;28;20381;-40
2022/04/16 07:44:57;;;;;;;5.15;4.38;;;;;;;;;;5015394;28;20061;-40
2022/04/16 07:47:23;;;;;;;6.35;4.65;;;;;;;;;;5015142;28;20541;-40
2022/04/16 07:49:48;;;;;;;8.10;4.30;;;;;;;;;;5014880;28;20033;-42
2022/04/16 07:52:14;;;;;;;5.18;4.55;;;;;;;;;;5014836;28;20073;-41
2022/04/16 07:54:40;;;;;;;9.40;4.25;;;;;;;;;;5015106;28;20026;-40
2022/04/16 07:57:06;;;;;;;5.90;4.38;;;;;;;;;;5014803;28;20134;-42
2022/04/16 07:59:32;;;;;;;9.05;4.53;;;;;;;;;;5014647;28;20052;-41
2022/04/16 08:01:58;;;;;;;5.72;4.38;;;;;;;;;;5014903;28;20056;-38
2022/04/16 08:04:23;;;;;;;6.93;4.93;;;;;;;;;;5014654;28;20474;-38
2022/04/16 08:06:50;;;;;;;4.63;3.97;;;;;;;;;;5014774;28;20038;-38
2022/04/16 08:09:17;;;;;;;7.15;4.43;;;;;;;;;;5014625;28;20061;-38
2022/04/16 08:11:42;;;;;;;4.35;3.95;;;;;;;;;;5014779;28;20108;-38
2022/04/16 08:14:08;;;;;;;8.15;4.70;;;;;;;;;;5014471;28;20081;-40
2022/04/16 08:16:33;;;;;;;5.07;4.38;;;;;;;;;;5014398;28;20022;-38
2022/04/16 08:18:59;;;;;;;5.55;4.63;;;;;;;;;;5014188;28;20017;-41
2022/04/16 08:21:29;;;;;;;4.78;4.20;;;;;;;;;;5014397;28;20105;-42
2022/04/16 08:24:04;;;;;;;6.47;4.60;;;;;;;;;;5014597;28;20032;-42
2022/04/16 08:26:30;;;;;;;5.78;4.30;;;;;;;;;;5014243;28;20033;-41
2022/04/16 08:28:55;;;;;;;4.30;3.80;;;;;;;;;;5014043;28;20060;-39
2022/04/16 08:31:21;;;;;;;8.13;4.00;;;;;;;;;;5014253;28;20046;-40
2022/04/16 08:33:46;;;;;;;6.13;4.45;;;;;;;;;;5014083;28;20053;-40
2022/04/16 08:36:12;;;;;;;6.45;4.40;;;;;;;;;;5014044;28;20113;-40
2022/04/16 08:38:37;;;;;;;7.68;5.18;;;;;;;;;;5013620;28;20028;-42
2022/04/16 08:41:04;;;;;;;9.20;5.75;;;;;;;;;;5013772;28;20482;-42
2022/04/16 08:43:30;;;;;;;8.88;5.80;;;;;;;;;;5013727;28;20018;-40
2022/04/16 08:45:55;;;;;;;7.78;5.45;;;;;;;;;;5013622;28;20033;-40
2022/04/16 08:48:21;;;;;;;7.70;5.47;;;;;;;;;;5014046;28;20052;-42
2022/04/16 08:50:47;;;;;;;6.93;5.20;;;;;;;;;;5013945;28;20508;-40
2022/04/16 08:53:14;;;;;;;7.30;5.00;;;;;;;;;;5013584;28;20026;-41
2022/04/16 08:55:39;;;;;;;7.70;5.40;;;;;;;;;;5013835;28;20033;-39
2022/04/16 08:58:05;;;;;;;9.02;5.57;;;;;;;;;;5013248;28;20030;-40
2022/04/16 09:00:31;;;;;;;6.68;4.75;;;;;;;;;;5013555;28;20092;-42
2022/04/16 09:02:58;;;;;;;7.68;4.80;;;;;;;;;;5013066;28;20022;-41
2022/04/16 09:05:26;;;;;;;7.05;4.75;;;;;;;;;;5013016;28;20026;-42
2022/04/16 09:07:56;;;;;;;6.15;4.28;;;;;;;;;;5012856;28;20482;-40
2022/04/16 09:10:26;;;;;;;6.05;4.35;;;;;;;;;;4995233;28;20033;-40
2022/04/16 09:12:53;;;;;;;5.55;4.60;;;;;;;;;;5012721;28;20064;-38
2022/04/16 09:15:19;;;;;;;6.25;4.90;;;;;;;;;;5012739;28;20489;-37
2022/04/16 09:17:59;;;;;;;6.38;4.93;;;;;;;;;;5012695;28;20017;-40
2022/04/16 09:20:30;;;;;;;8.25;4.63;;;;;;;;;;5010766;28;20049;-40
2022/04/16 09:22:55;;;;;;;6.18;4.75;;;;;;;;;;5012961;28;20021;-40
2022/04/16 09:25:21;;;;;;;7.05;5.05;;;;;;;;;;5012648;28;20375;-40
2022/04/16 09:27:49;;;;;;;6.85;4.53;;;;;;;;;;5012798;28;20094;-41
2022/04/16 09:30:24;;;;;;;6.82;5.15;;;;;;;;;;5012664;28;20030;-40
2022/04/16 09:32:52;;;;;;;7.13;4.65;;;;;;;;;;5012563;28;20090;-40
2022/04/16 09:35:31;;;;;;;7.80;4.78;;;;;;;;;;5013168;28;20060;-41
2022/04/16 09:37:59;;;;;;;5.65;4.50;;;;;;;;;;5013231;28;20397;-40
2022/04/16 09:40:29;;;;;;;7.07;4.72;;;;;;;;;;5012586;28;20021;-40
2022/04/16 09:42:56;;;;;;;5.75;4.53;;;;;;;;;;5010234;28;20137;-39
2022/04/16 09:45:22;;;;;;;6.35;4.70;;;;;;;;;;5011640;28;20022;-39
2022/04/16 09:47:52;;;;;;;6.53;4.10;;;;;;;;;;5012108;28;20561;-38
2022/04/16 09:50:20;;;;;;;5.07;3.80;;;;;;;;;;5011747;28;20032;-38
2022/04/16 09:52:51;;;;;;;11.27;4.88;;;;;;;;;;5012803;28;20109;-39
2022/04/16 09:55:21;;;;;;;5.25;4.22;;;;;;;;;;5012569;28;20025;-39
2022/04/16 09:57:52;;;;;;;5.13;3.33;;;;;;;;;;5012623;28;20546;-39
2022/04/16 10:00:18;;;;;;;5.82;4.22;;;;;;;;;;5011665;28;20115;-40
2022/04/16 10:02:44;;;;;;;5.50;3.95;;;;;;;;;;5010792;28;20117;-39
2022/04/16 10:05:10;;;;;;;5.88;4.07;;;;;;;;;;5010705;28;20061;-39
2022/04/16 10:07:37;;;;;;;3.38;2.95;;;;;;;;;;5010366;28;20045;-39
2022/04/16 10:10:06;;;;;;;3.00;2.70;;;;;;;;;;5010812;28;20474;-38
2022/04/16 10:15:23;;;;;;;4.03;3.50;;;;;;;;;;5011622;28;20037;-39
2022/04/16 10:17:51;;;;;;;4.75;3.25;;;;;;;;;;5012417;28;20125;-38
2022/04/16 10:20:21;;;;;;;3.88;3.13;;;;;;;;;;5012673;28;20391;-38
2022/04/16 10:22:56;;;;;;;3.70;2.90;;;;;;;;;;5012614;28;20060;-38
2022/04/16 10:25:34;;;;;;;3.22;2.80;;;;;;;;;;5012373;28;20022;-38
2022/04/16 10:28:05;;;;;;;4.75;3.63;;;;;;;;;;5012577;28;20467;-39
2022/04/16 10:30:37;;;;;;;3.95;3.00;;;;;;;;;;5012284;28;20022;-38
2022/04/16 10:33:21;;;;;;;3.63;2.42;;;;;;;;;;5012121;28;20026;-38
2022/04/16 10:35:52;;;;;;;2.13;1.92;;;;;;;;;;5011362;28;20025;-38
2022/04/16 10:38:20;;;;;;;;;;;;;;;;;;5012254;28;20160;-38
2022/04/16 10:40:54;;;;;;;8.85;3.20;;;;;;;;;;5010651;28;19928;-39
2022/04/16 10:43:26;;;;;;;3.03;1.90;;;;;;;;;;5010843;28;20394;-39
2022/04/16 10:46:10;;;;;;;3.97;2.33;;;;;;;;;;5010455;28;20474;-38
2022/04/16 10:48:41;;;;;;;2.28;1.80;;;;;;;;;;5010395;28;20482;-39
2022/04/16 10:51:07;;;;;;;2.95;2.45;;;;;;;;;;5010153;28;20581;-38
2022/04/16 10:53:37;;;;;;;2.97;2.30;;;;;;;;;;5010411;28;20022;-38
2022/04/16 10:56:11;;;;;;;2.83;2.53;;;;;;;;;;5010500;28;20049;-38
2022/04/16 10:58:39;;;;;;;2.05;1.63;;;;;;;;;;5010561;28;20045;-39
2022/04/16 11:01:10;;;;;;;2.78;1.77;;;;;;;;;;5012340;28;20810;-39
2022/04/16 11:04:13;;;;;;;4.25;1.80;;;;;;;;;;5014557;28;20053;-39
2022/04/16 11:06:44;;;;;;;2.10;1.90;;;;;;;;;;4990314;28;20099;-40
2022/04/16 11:09:12;;;;;;;4.15;1.75;;;;;;;;;;5014421;28;20030;-40
2022/04/16 11:11:38;;;;;;;1.95;1.40;;;;;;;;;;5014381;28;20374;-38
2022/04/16 11:14:07;;;;;;;2.30;1.60;;;;;;;;;;5014217;28;20033;-38
2022/04/16 11:16:47;;;;;;;2.38;1.90;;;;;;;;;;5014313;28;20033;-40
2022/04/16 11:19:16;;;;;;;2.83;1.83;;;;;;;;;;5013365;28;20382;-40
2022/04/16 11:21:43;;;;;;;1.73;1.63;;;;;;;;;;5013700;28;20034;-39
2022/04/16 11:24:09;;;;;;;2.97;2.30;;;;;;;;;;5014238;28;20124;-39
2022/04/16 11:34:57;;;;;;;2.35;1.75;;;;;;;;;;5014077;28;20037;-41
2022/04/16 11:37:23;;;;;;;3.03;2.10;;;;;;;;;;5013728;28;20022;-40
2022/04/16 11:40:21;;;;;;;2.38;2.10;;;;;;;;;;5013630;28;20034;-40
2022/04/16 11:42:46;;;;;;;3.13;2.70;;;;;;;;;;4980286;28;20114;-40
2022/04/16 11:45:14;;;;;;;2.80;2.50;;;;;;;;;;5013826;28;20096;-39
2022/04/16 11:47:40;;;;;;;3.92;3.22;;;;;;;;;;4996172;28;20375;-44
2022/04/16 11:50:08;;;;;;;5.82;3.70;;;;;;;;;;5013244;28;20053;-39
2022/04/16 11:52:35;;;;;;;3.85;3.20;;;;;;;;;;5013589;28;20386;-39
2022/04/16 11:55:01;;;;;;;9.45;3.92;;;;;;;;;;4995802;28;20029;-39
2022/04/16 11:57:26;;;;;;;5.40;3.67;;;;;;;;;;5013179;28;20022;-40
2022/04/16 11:59:59;;;;;;;3.70;3.05;;;;;;;;;;5013506;28;20560;-40
2022/04/16 12:02:32;;;;;;;6.70;3.97;;;;;;;;;;5012453;28;20021;-39
2022/04/16 12:05:13;;;;;;;8.07;3.40;;;;;;;;;;5014682;28;20022;-41
2022/04/16 12:07:42;;;;;;;4.55;3.70;;;;;;;;;;5014500;28;20034;-39
2022/04/16 12:10:09;;;;;;;22.90;4.17;;;;;;;;;;4996275;28;20113;-42
2022/04/16 12:12:49;;;;;;;2.83;2.03;;;;;;;;;;5013349;28;20053;-39
2022/04/16 12:15:29;;;;;;;3.22;2.90;;;;;;;;;;5011885;28;20030;-41
2022/04/16 12:17:56;;;;;;;4.05;3.00;;;;;;;;;;5011120;28;20053;-39
2022/04/16 12:20:22;;;;;;;5.63;3.65;;;;;;;;;;5012725;28;20022;-40
2022/04/16 12:22:49;;;;;;;3.38;3.00;;;;;;;;;;5011987;28;20493;-39
2022/04/16 12:25:19;;;;;;;6.82;3.95;;;;;;;;;;5009604;28;20017;-41
2022/04/16 12:27:53;;;;;;;5.28;3.53;;;;;;;;;;5012406;28;20080;-40
2022/04/16 12:30:19;;;;;;;4.97;3.70;;;;;;;;;;5012513;28;20646;-42
2022/04/16 12:32:59;;;;;;;5.70;3.88;;;;;;;;;;5012339;28;20030;-39
2022/04/16 12:35:25;;;;;;;5.43;3.92;;;;;;;;;;5012602;28;20026;-40
2022/04/16 12:37:54;;;;;;;5.82;4.22;;;;;;;;;;5012252;28;20114;-42
2022/04/16 12:40:21;;;;;;;5.03;3.73;;;;;;;;;;5012081;28;20022;-44
2022/04/16 12:42:50;;;;;;;6.75;3.50;;;;;;;;;;5010014;28;20326;-38
2022/04/16 12:45:16;;;;;;;4.72;3.30;;;;;;;;;;5012494;28;20716;-38
2022/04/16 12:47:42;;;;;;;5.38;3.45;;;;;;;;;;5012360;28;20109;-38
2022/04/16 12:50:09;;;;;;;5.03;2.80;;;;;;;;;;5012234;28;20060;-37
2022/04/16 12:52:35;;;;;;;3.22;2.70;;;;;;;;;;5011957;28;20453;-41
2022/04/16 12:55:01;;;;;;;3.53;2.72;;;;;;;;;;5012650;28;20053;-44
2022/04/16 12:57:26;;;;;;;4.07;3.10;;;;;;;;;;5013644;28;20467;-41
2022/04/16 12:59:52;;;;;;;4.15;3.50;;;;;;;;;;5013410;28;20402;-42
2022/04/16 13:02:18;;;;;;;5.82;3.92;;;;;;;;;;5013511;28;20053;-40
2022/04/16 13:04:44;;;;;;;3.55;2.92;;;;;;;;;;5013335;28;20030;-39
2022/04/16 13:07:09;;;;;;;4.65;3.22;;;;;;;;;;5013311;28;20040;-39
2022/04/16 13:09:37;;;;;;;4.85;3.45;;;;;;;;;;5012928;28;20066;-40
2022/04/16 13:12:02;;;;;;;4.95;3.15;;;;;;;;;;5013590;28;20556;-39
2022/04/16 13:14:28;;;;;;;2.42;2.22;;;;;;;;;;5013405;28;20048;-38
2022/04/16 13:16:55;;;;;;;3.60;3.05;;;;;;;;;;5013348;28;20209;-38
2022/04/16 13:19:20;;;;;;;4.68;3.20;;;;;;;;;;5012329;28;20447;-39
2022/04/16 13:21:46;;;;;;;4.22;2.70;;;;;;;;;;5012362;28;20064;-38
2022/04/16 13:24:14;;;;;;;2.78;2.25;;;;;;;;;;5011525;28;20347;-38
2022/04/16 13:26:40;;;;;;;3.63;2.78;;;;;;;;;;5012521;28;20033;-40
2022/04/16 13:29:06;;;;;;;2.78;2.30;;;;;;;;;;5012801;28;20040;-38
2022/04/16 13:31:32;;;;;;;3.38;2.85;;;;;;;;;;5012567;28;20105;-40
2022/04/16 13:33:57;;;;;;;2.60;2.25;;;;;;;;;;5012945;28;20034;-39
2022/04/16 13:36:23;;;;;;;5.03;2.10;;;;;;;;;;5013246;28;20033;-39
2022/04/16 13:38:48;;;;;;;3.65;2.40;;;;;;;;;;5013182;28;20026;-38
2022/04/16 13:43:58;;;;;;;2.97;1.80;;;;;;;;;;5012921;28;20528;-38
2022/04/16 13:46:24;;;;;;;2.35;2.00;;;;;;;;;;5012854;28;20030;-39
2022/04/16 13:48:49;;;;;;;2.13;1.92;;;;;;;;;;5013028;28;20095;-39
2022/04/16 13:51:16;;;;;;;3.08;2.05;;;;;;;;;;5012668;28;20060;-40
2022/04/16 13:53:41;;;;;;;2.85;2.15;;;;;;;;;;5012779;28;20026;-39
2022/04/16 13:56:07;;;;;;;3.97;2.13;;;;;;;;;;5012781;28;20037;-39
2022/04/16 13:58:33;;;;;;;2.33;1.83;;;;;;;;;;5012716;28;20062;-39
2022/04/16 14:00:59;;;;;;;2.58;1.90;;;;;;;;;;5012487;28;20022;-39
2022/04/16 14:03:25;;;;;;;1.77;1.60;;;;;;;;;;5012608;28;20029;-38
2022/04/16 14:05:50;;;;;;;2.38;1.77;;;;;;;;;;5012680;28;20031;-38
2022/04/16 14:08:18;;;;;;;1.73;1.60;;;;;;;;;;5012489;28;20034;-38
2022/04/16 14:10:44;;;;;;;1.90;1.70;;;;;;;;;;5012484;28;20029;-39
2022/04/16 14:13:10;;;;;;;2.97;1.90;;;;;;;;;;5012485;28;20545;-39
2022/04/16 14:15:37;;;;;;;2.60;2.15;;;;;;;;;;5012782;28;20034;-39
2022/04/16 14:18:03;;;;;;;2.95;2.30;;;;;;;;;;5012543;28;20029;-39
2022/04/16 14:20:29;;;;;;;4.13;2.40;;;;;;;;;;5012743;28;20117;-38
2022/04/16 14:22:56;;;;;;;2.70;2.28;;;;;;;;;;5012686;28;20030;-39
2022/04/16 14:25:22;;;;;;;2.80;2.50;;;;;;;;;;5012385;28;20026;-39
2022/04/16 14:27:47;;;;;;;5.55;2.60;;;;;;;;;;5012304;28;20080;-39
2022/04/16 14:30:13;;;;;;;2.85;2.30;;;;;;;;;;5012667;28;20375;-39
2022/04/16 14:32:38;;;;;;;3.35;2.35;;;;;;;;;;5012347;28;20037;-39
2022/04/16 14:35:05;;;;;;;4.80;2.90;;;;;;;;;;5012560;28;20022;-39
2022/04/16 14:37:30;;;;;;;3.65;2.72;;;;;;;;;;5016262;28;20091;-39
2022/04/16 14:39:56;;;;;;;3.33;2.65;;;;;;;;;;5016261;28;20034;-39
2022/04/16 14:42:22;;;;;;;5.88;3.47;;;;;;;;;;5016147;28;20037;-39
2022/04/16 14:44:52;;;;;;;5.80;3.03;;;;;;;;;;5016205;28;20026;-39
2022/04/16 14:47:19;;;;;;;4.88;2.70;;;;;;;;;;4998474;28;20540;-38
2022/04/16 14:49:44;;;;;;;3.60;2.88;;;;;;;;;;5016102;28;20088;-39
2022/04/16 14:52:11;;;;;;;3.72;2.55;;;;;;;;;;5016042;28;20051;-38
2022/04/16 14:54:36;;;;;;;4.28;3.13;;;;;;;;;;5016566;28;20080;-39
2022/04/16 14:57:03;;;;;;;4.78;3.20;;;;;;;;;;5016088;28;20058;-39
2022/04/16 14:59:28;;;;;;;5.45;3.45;;;;;;;;;;5015814;28;20490;-39
2022/04/16 15:01:58;;;;;;;6.05;3.55;;;;;;;;;;5016091;28;20038;-41
2022/04/16 15:04:23;;;;;;;6.22;3.47;;;;;;;;;;5015899;28;20018;-39